Time;durP1;ratioP1;P1;durP2;ratioP2;P2;SDS_P1;SDS_P2;PMS_P1;PMS_P2;Temp;Humidity;BMP_temperature;BMP_pressure;BME280_temperature;BME280_humidity;BME280_pressure;Samples;Min_cycle;Max_cycle;Signal;HPM_P1;HPM_P2
2023/09/19 00:01:48;;;;;;;10.10;4.40;;;;;;;12.79;66.69;99060.70;109393;1253;72666;-23
2023/09/19 00:04:15;;;;;;;8.90;4.50;;;;;;;12.95;65.67;99060.34;109327;1253;59329;-23
2023/09/19 00:06:44;;;;;;;6.80;5.00;;;;;;;12.88;65.63;99060.11;109318;1253;58766;-23
2023/09/19 00:09:11;;;;;;;6.60;5.00;;;;;;;12.71;65.67;99060.23;109344;1253;72860;-23
2023/09/19 00:11:41;;;;;;;7.90;5.20;;;;;;;12.53;65.71;99058.65;109224;1253;73385;-23
2023/09/19 00:14:09;;;;;;;9.70;5.80;;;;;;;12.36;66.00;99062.28;109199;1253;72706;-23
2023/09/19 00:16:36;;;;;;;10.30;5.00;;;;;;;12.21;66.19;99065.20;109336;1253;58812;-22
2023/09/19 00:19:08;;;;;;;8.30;5.20;;;;;;;12.07;66.45;99065.29;109359;1253;58967;-23
2023/09/19 00:21:37;;;;;;;9.30;5.80;;;;;;;11.97;66.71;99061.26;109302;1253;73206;-23
2023/09/19 00:24:06;;;;;;;9.10;5.50;;;;;;;11.90;67.03;99064.81;109347;1253;74340;-23
2023/09/19 00:26:34;;;;;;;8.90;5.70;;;;;;;11.84;67.19;99065.56;109180;1256;72670;-23
2023/09/19 00:29:08;;;;;;;9.20;5.80;;;;;;;11.80;67.41;99068.18;109281;1257;60061;-23
2023/09/19 00:31:37;;;;;;;8.30;5.70;;;;;;;11.77;66.97;99067.05;109149;1254;58880;-23
2023/09/19 00:34:06;;;;;;;7.40;4.90;;;;;;;11.75;67.20;99063.70;109256;1254;73287;-23
2023/09/19 00:36:33;;;;;;;8.00;5.10;;;;;;;11.74;67.44;99060.97;109195;1256;74335;-23
2023/09/19 00:39:02;;;;;;;9.90;5.30;;;;;;;11.72;67.54;99063.55;109314;1254;72669;-23
2023/09/19 00:41:30;;;;;;;6.00;3.60;;;;;;;11.75;67.61;99062.52;109383;1254;58894;-23
2023/09/19 00:44:00;;;;;;;11.40;4.40;;;;;;;12.27;67.70;99062.36;109320;1254;59034;-23
2023/09/19 00:46:28;;;;;;;9.50;5.10;;;;;;;12.95;66.01;99062.63;109298;1254;73041;-23
2023/09/19 00:48:56;;;;;;;7.50;4.30;;;;;;;13.14;64.87;99060.02;109293;1254;73555;-23
2023/09/19 00:51:25;;;;;;;6.70;4.60;;;;;;;13.08;64.69;99061.48;109112;1255;72740;-23
2023/09/19 00:53:53;;;;;;;11.20;5.10;;;;;;;12.92;64.84;99061.66;109001;1255;58902;-23
2023/09/19 00:56:20;;;;;;;12.80;5.60;;;;;;;12.77;64.92;99057.60;109221;1254;60170;-23
2023/09/19 00:58:48;;;;;;;13.10;5.80;;;;;;;12.62;65.22;99051.58;109172;1254;71990;-23
2023/09/19 01:01:16;;;;;;;6.50;5.70;;;;;;;12.49;65.56;99048.39;109162;1254;74302;-23
2023/09/19 01:03:44;;;;;;;5.90;4.80;;;;;;;12.37;65.89;99044.08;109163;1254;71319;-23
2023/09/19 01:06:13;;;;;;;7.40;5.10;;;;;;;12.25;66.30;99040.60;109147;1256;58941;-23
2023/09/19 01:08:41;;;;;;;8.80;5.30;;;;;;;12.15;66.14;99036.42;109297;1254;58762;-23
2023/09/19 01:11:13;;;;;;;7.40;5.20;;;;;;;12.06;67.02;99036.52;109315;1254;73087;-23
2023/09/19 01:14:10;;;;;;;11.50;5.80;;;;;;;11.96;67.30;99028.67;109080;1254;73513;-23
2023/09/19 01:16:53;;;;;;;9.80;5.30;;;;;;;11.85;67.70;99027.34;109215;1254;71426;-23
2023/09/19 01:20:00;;;;;;;11.80;5.50;;;;;;;11.74;67.70;99028.10;109109;1256;58802;-23
2023/09/19 01:22:39;;;;;;;8.10;4.90;;;;;;;11.64;67.90;99018.77;109175;1254;60021;-23
2023/09/19 01:25:29;;;;;;;7.40;4.00;;;;;;;11.59;68.51;99014.61;109293;1256;73051;-23
2023/09/19 01:28:05;;;;;;;6.90;3.90;;;;;;;12.29;68.72;99011.69;109095;1256;74348;-23
2023/09/19 01:30:39;;;;;;;9.00;5.30;;;;;;;12.90;66.76;99004.48;109083;1255;72709;-23
2023/09/19 01:33:07;;;;;;;;;;;;;;;13.01;65.85;99006.17;109124;1255;58849;-23
2023/09/19 01:35:38;;;;;;;12.40;4.40;;;;;;;12.89;65.97;99002.13;109241;1255;59844;-23
2023/09/19 01:38:09;;;;;;;7.60;4.80;;;;;;;12.74;65.94;98995.87;109126;1256;73079;-23
2023/09/19 01:45:34;;;;;;;11.10;4.90;;;;;;;12.31;66.89;98992.75;109339;1256;71348;-22
2023/09/19 01:48:42;;;;;;;8.30;5.90;;;;;;;12.15;67.45;98987.73;109238;1256;59148;-23
2023/09/19 01:51:10;;;;;;;9.30;5.30;;;;;;;12.00;67.87;98986.42;108960;1257;58787;-22
2023/09/19 01:54:06;;;;;;;6.90;4.70;;;;;;;11.92;68.09;98982.77;109085;1257;72294;-22
2023/09/19 01:56:40;;;;;;;7.00;5.30;;;;;;;11.84;68.44;98985.73;109113;1256;73300;-23
2023/09/19 01:59:11;;;;;;;6.80;5.00;;;;;;;11.78;68.44;98984.48;109041;1257;72693;-23
2023/09/19 02:01:39;;;;;;;7.70;5.70;;;;;;;11.73;69.14;98977.80;109116;1257;60047;-23
2023/09/19 02:04:07;;;;;;;7.90;3.80;;;;;;;11.71;68.86;98974.98;109094;1256;60078;-23
2023/09/19 02:06:35;;;;;;;4.90;3.30;;;;;;;12.27;69.07;98973.38;109138;1257;71886;-23
2023/09/19 02:09:03;;;;;;;7.50;4.60;;;;;;;12.95;67.33;98964.64;109165;1254;73152;-23
2023/09/19 02:11:31;;;;;;;7.20;4.40;;;;;;;13.16;66.29;98963.11;109239;1256;72730;-23
2023/09/19 02:13:59;;;;;;;7.50;4.90;;;;;;;13.11;65.86;98959.52;109181;1257;58873;-23
2023/09/19 02:16:28;;;;;;;6.60;4.70;;;;;;;12.99;65.85;98959.07;109105;1255;58804;-22
2023/09/19 02:18:56;;;;;;;11.00;5.50;;;;;;;12.86;66.08;98959.09;109250;1255;73035;-23
2023/09/19 02:21:24;;;;;;;8.10;5.60;;;;;;;12.74;66.34;98958.63;109235;1257;73351;-23
2023/09/19 02:23:52;;;;;;;9.00;5.60;;;;;;;12.60;66.70;98955.52;109122;1255;72779;-23
2023/09/19 02:26:20;;;;;;;13.20;5.50;;;;;;;12.48;67.04;98959.00;109166;1256;60169;-23
2023/09/19 02:28:48;;;;;;;8.30;5.30;;;;;;;12.37;67.29;98958.63;109226;1256;58853;-23
2023/09/19 02:31:16;;;;;;;8.20;5.10;;;;;;;12.26;67.42;98957.87;109233;1257;73013;-22
2023/09/19 02:33:46;;;;;;;9.50;5.30;;;;;;;12.16;67.71;98953.92;109102;1257;73602;-22
2023/09/19 02:36:16;;;;;;;11.50;5.80;;;;;;;12.06;67.71;98946.60;109105;1257;72268;-23
2023/09/19 02:38:45;;;;;;;6.50;5.00;;;;;;;11.99;68.31;98948.23;109129;1257;60091;-23
2023/09/19 02:41:12;;;;;;;8.70;5.30;;;;;;;11.92;68.30;98943.05;109187;1256;58953;-23
2023/09/19 02:43:40;;;;;;;6.60;3.70;;;;;;;11.89;69.05;98941.59;109182;1261;73023;-23
2023/09/19 02:46:08;;;;;;;7.20;4.00;;;;;;;12.44;68.86;98937.98;109149;1256;73073;-23
2023/09/19 02:48:36;;;;;;;6.80;4.20;;;;;;;13.10;67.23;98934.70;109066;1257;72727;-23
2023/09/19 02:51:04;;;;;;;11.00;5.60;;;;;;;13.29;66.08;98926.83;109064;1256;58842;-23
2023/09/19 02:53:32;;;;;;;9.40;6.30;;;;;;;13.23;65.72;98926.39;109220;1255;58735;-23
2023/09/19 02:56:01;;;;;;;15.50;7.50;;;;;;;13.09;65.86;98920.67;109205;1257;73844;-23
2023/09/19 02:58:30;;;;;;;9.70;6.70;;;;;;;12.92;66.04;98921.08;109128;1257;74383;-23
2023/09/19 03:00:58;;;;;;;11.30;6.50;;;;;;;12.76;66.61;98918.20;109110;1255;72684;-23
2023/09/19 03:03:28;;;;;;;9.10;5.10;;;;;;;12.60;66.56;98919.98;109062;1262;60046;-23
2023/09/19 03:05:58;;;;;;;10.10;5.30;;;;;;;12.43;67.34;98921.21;109160;1255;60007;-23
2023/09/19 03:08:25;;;;;;;7.70;5.10;;;;;;;12.27;67.55;98920.20;109152;1256;73138;-23
2023/09/19 03:10:53;;;;;;;9.50;5.10;;;;;;;12.13;67.62;98919.05;109153;1256;73227;-23
2023/09/19 03:13:21;;;;;;;9.20;5.20;;;;;;;12.00;68.06;98919.28;109083;1259;72485;-23
2023/09/19 03:15:50;;;;;;;7.10;5.30;;;;;;;11.86;68.69;98919.20;109101;1257;60062;-23
2023/09/19 03:18:23;;;;;;;7.80;5.10;;;;;;;11.77;69.06;98918.33;109150;1255;60047;-23
2023/09/19 03:20:54;;;;;;;6.50;3.70;;;;;;;11.70;69.84;98918.55;109153;1257;73844;-23
2023/09/19 03:23:23;;;;;;;6.50;3.70;;;;;;;12.24;69.51;98914.35;108993;1256;74305;-23
2023/09/19 03:25:52;;;;;;;5.10;4.10;;;;;;;12.86;67.84;98910.81;109125;1257;72716;-23
2023/09/19 03:28:21;;;;;;;11.70;4.50;;;;;;;12.99;67.04;98908.07;109053;1257;60073;-23
2023/09/19 03:31:04;;;;;;;7.30;4.80;;;;;;;12.88;66.97;98904.98;109033;1257;58848;-23
2023/09/19 03:33:33;;;;;;;8.20;4.90;;;;;;;12.68;67.33;98907.96;109030;1257;73884;-23
2023/09/19 03:36:04;;;;;;;9.40;4.80;;;;;;;12.48;67.91;98909.61;109111;1256;73656;-23
2023/09/19 03:38:34;;;;;;;6.80;5.10;;;;;;;12.28;68.53;98904.73;109056;1256;72695;-23
2023/09/19 03:41:02;;;;;;;8.90;5.60;;;;;;;12.13;68.79;98907.34;109027;1257;60071;-23
2023/09/19 03:43:32;;;;;;;9.10;5.40;;;;;;;11.98;69.88;98910.88;109033;1257;58775;-23
2023/09/19 03:46:07;;;;;;;12.00;5.10;;;;;;;11.85;70.26;98907.21;108977;1256;71835;-23
2023/09/19 03:48:35;;;;;;;9.90;5.80;;;;;;;11.72;70.76;98905.91;109086;1263;74341;-23
2023/09/19 03:51:03;;;;;;;7.40;4.80;;;;;;;11.64;71.41;98904.83;109062;1257;72679;-23
2023/09/19 03:53:32;;;;;;;5.50;4.30;;;;;;;12.15;71.27;98907.11;109006;1257;60049;-23
2023/09/19 03:56:01;;;;;;;6.20;4.10;;;;;;;12.77;69.61;98903.41;109150;1256;60101;-23
2023/09/19 03:58:30;;;;;;;7.70;4.40;;;;;;;12.93;68.65;98902.83;109080;1257;72571;-23
2023/09/19 04:00:59;;;;;;;9.80;4.80;;;;;;;12.84;68.40;98908.75;109100;1257;74309;-23
2023/09/19 04:03:35;;;;;;;10.20;6.10;;;;;;;12.69;68.78;98905.42;109077;1256;72722;-23
2023/09/19 04:06:03;;;;;;;9.80;6.00;;;;;;;12.52;69.52;98899.25;109081;1257;60055;-23
2023/09/19 04:08:31;;;;;;;7.60;5.20;;;;;;;12.38;69.88;98903.67;109104;1256;58846;-22
2023/09/19 04:10:59;;;;;;;8.40;5.80;;;;;;;12.24;70.44;98903.52;109077;1257;73868;-23
2023/09/19 04:13:27;;;;;;;9.80;5.40;;;;;;;12.13;71.03;98902.09;109070;1257;73174;-23
2023/09/19 04:15:56;;;;;;;7.00;5.20;;;;;;;12.06;71.77;98897.56;109100;1257;70496;-23
2023/09/19 04:18:24;;;;;;;5.10;3.30;;;;;;;12.01;72.14;98893.09;109129;1257;61752;-23
2023/09/19 04:20:53;;;;;;;6.30;3.20;;;;;;;12.59;72.09;98894.97;109099;1257;60079;-23
2023/09/19 04:23:21;;;;;;;9.30;4.80;;;;;;;13.29;70.17;98886.89;109096;1262;73874;-23
2023/09/19 04:25:50;;;;;;;10.10;4.50;;;;;;;13.53;69.13;98886.94;109062;1257;74340;-23
2023/09/19 04:28:18;;;;;;;7.50;4.40;;;;;;;13.51;68.87;98886.55;109005;1257;71765;-23
2023/09/19 04:30:46;;;;;;;7.10;5.00;;;;;;;13.44;68.85;98886.09;109094;1260;60004;-23
2023/09/19 04:33:14;;;;;;;8.80;6.00;;;;;;;13.33;69.30;98886.05;109076;1257;60019;-23
2023/09/19 04:35:42;;;;;;;11.30;7.20;;;;;;;13.26;69.84;98885.83;109049;1257;72598;-23
2023/09/19 04:38:10;;;;;;;11.90;9.00;;;;;;;13.20;70.13;98880.09;109058;1257;74299;-23
2023/09/19 04:40:39;;;;;;;18.30;9.90;;;;;;;13.17;70.87;98882.48;109067;1257;71487;-22
2023/09/19 04:43:07;;;;;;;19.00;11.70;;;;;;;13.20;71.12;98879.95;109100;1257;59258;-22
2023/09/19 04:45:35;;;;;;;17.60;9.60;;;;;;;13.26;71.27;98878.53;109179;1257;60008;-23
2023/09/19 04:48:03;;;;;;;8.90;5.90;;;;;;;13.37;71.74;98874.29;109127;1257;72628;-23
2023/09/19 04:50:31;;;;;;;7.90;5.30;;;;;;;14.12;70.84;98876.27;109045;1257;73080;-23
2023/09/19 04:53:00;;;;;;;9.60;6.80;;;;;;;14.94;68.27;98874.30;109060;1257;72053;-23
2023/09/19 04:55:30;;;;;;;15.60;8.40;;;;;;;15.28;66.38;98869.82;109109;1257;58792;-23
2023/09/19 04:57:58;;;;;;;9.40;6.40;;;;;;;15.44;65.91;98871.08;109062;1257;58749;-23
2023/09/19 05:00:29;;;;;;;8.20;5.80;;;;;;;15.53;65.56;98870.54;109120;1258;73039;-23
2023/09/19 05:02:57;;;;;;;7.30;5.10;;;;;;;15.56;65.53;98864.37;109065;1257;74287;-23
2023/09/19 05:05:26;;;;;;;10.00;5.10;;;;;;;15.65;65.60;98868.75;109097;1261;71455;-23
2023/09/19 05:07:55;;;;;;;7.00;5.50;;;;;;;15.70;65.32;98868.09;109094;1257;60137;-23
2023/09/19 05:10:22;;;;;;;7.60;4.60;;;;;;;15.73;65.56;98865.31;109112;1257;60065;-23
2023/09/19 05:12:53;;;;;;;5.20;4.60;;;;;;;15.74;65.53;98860.81;109046;1257;72560;-23
2023/09/19 05:15:21;;;;;;;6.80;4.60;;;;;;;15.80;65.69;98863.88;108983;1258;74312;-23
2023/09/19 05:17:54;;;;;;;8.50;4.20;;;;;;;15.91;65.37;98858.65;109040;1257;71722;-22
2023/09/19 05:20:36;;;;;;;7.80;4.80;;;;;;;15.97;65.46;98850.84;108982;1257;59283;-22
2023/09/19 05:23:13;;;;;;;11.80;4.50;;;;;;;16.02;65.35;98850.86;109060;1260;58784;-24
2023/09/19 05:25:43;;;;;;;9.40;4.40;;;;;;;15.99;65.58;98843.61;109008;1257;72282;-23
2023/09/19 05:28:15;;;;;;;5.20;3.90;;;;;;;15.89;66.18;98840.50;109005;1257;74292;-23
2023/09/19 05:30:45;;;;;;;10.40;4.60;;;;;;;15.90;66.61;98840.38;109034;1261;72707;-23
2023/09/19 05:33:18;;;;;;;5.70;4.20;;;;;;;15.96;66.11;98833.17;109035;1257;60217;-23
2023/09/19 05:35:53;;;;;;;5.30;4.00;;;;;;;16.01;66.17;98836.06;109059;1257;59137;-23
2023/09/19 05:38:27;;;;;;;6.80;4.60;;;;;;;16.08;66.13;98831.90;109007;1257;71645;-23
2023/09/19 05:40:57;;;;;;;;;;;;;;;16.04;66.34;98831.40;109014;1257;74322;-23
2023/09/19 05:43:28;;;;;;;11.20;4.70;;;;;;;15.95;66.53;98828.31;109010;1257;72782;-23
2023/09/19 05:46:00;;;;;;;6.50;4.80;;;;;;;15.93;67.08;98828.09;109001;1257;58811;-24
2023/09/19 05:48:31;;;;;;;7.70;4.70;;;;;;;15.90;67.13;98830.59;109014;1257;58929;-23
2023/09/19 05:51:01;;;;;;;7.80;4.40;;;;;;;15.87;67.02;98831.25;109001;1257;72888;-23
2023/09/19 05:53:31;;;;;;;4.80;4.00;;;;;;;15.86;67.22;98824.16;108957;1257;74379;-22
2023/09/19 05:56:01;;;;;;;4.80;3.40;;;;;;;15.90;67.73;98822.21;108988;1257;72740;-23
2023/09/19 05:58:31;;;;;;;8.30;3.60;;;;;;;16.48;66.59;98820.54;109057;1257;58867;-23
2023/09/19 06:01:02;;;;;;;4.70;3.70;;;;;;;16.97;64.65;98816.75;109034;1257;60095;-23
2023/09/19 06:03:32;;;;;;;5.90;3.90;;;;;;;17.07;64.09;98813.84;109019;1257;75041;-23
2023/09/19 06:06:04;;;;;;;6.60;3.60;;;;;;;17.01;63.79;98814.98;108968;1257;74497;-23
2023/09/19 06:08:51;;;;;;;4.80;4.00;;;;;;;16.94;64.03;98814.22;108923;1257;72740;-23
2023/09/19 06:11:24;;;;;;;5.60;4.30;;;;;;;16.89;64.05;98810.27;109104;1257;60049;-23
2023/09/19 06:13:55;;;;;;;5.30;3.90;;;;;;;16.76;64.56;98811.31;109057;1257;59729;-23
2023/09/19 06:16:25;;;;;;;7.30;4.50;;;;;;;16.74;65.02;98809.61;109042;1257;73933;-22
2023/09/19 06:18:55;;;;;;;5.80;4.60;;;;;;;16.74;64.83;98806.07;109023;1257;73047;-23
2023/09/19 06:21:26;;;;;;;7.60;4.60;;;;;;;16.74;64.91;98805.20;108947;1257;72768;-23
2023/09/19 06:23:57;;;;;;;5.00;4.40;;;;;;;16.69;65.00;98807.73;109010;1257;58875;-23
2023/09/19 06:34:03;;;;;;;7.20;4.30;;;;;;;16.93;64.88;98794.92;103667;1280;599961;-22
2023/09/19 06:43:11;;;;;;;5.10;4.30;;;;;;;17.15;64.46;98782.86;102553;1293;600618;-22
2023/09/19 06:45:39;;;;;;;5.10;4.60;;;;;;;17.21;63.98;98784.61;104833;1267;61253;-21
2023/09/19 06:48:09;;;;;;;11.80;5.30;;;;;;;17.34;63.71;98782.30;104792;1273;61254;-21
2023/09/19 06:50:38;;;;;;;9.30;4.50;;;;;;;17.46;63.52;98788.34;104773;1267;72328;-22
2023/09/19 06:53:06;;;;;;;8.40;4.60;;;;;;;17.60;63.32;98786.03;104809;1268;74296;-23
2023/09/19 06:55:34;;;;;;;7.10;4.70;;;;;;;17.72;62.52;98783.05;104802;1272;72643;-22
2023/09/19 06:58:02;;;;;;;5.50;3.50;;;;;;;17.80;62.45;98786.64;102689;1264;61243;-22
2023/09/19 07:00:32;;;;;;;5.30;4.40;;;;;;;17.90;62.38;98787.96;105216;1265;61211;-21
2023/09/19 07:03:03;;;;;;;7.30;4.40;;;;;;;18.06;61.99;98790.35;105086;1266;71314;-21
2023/09/19 07:13:19;;;;;;;9.90;4.50;;;;;;;18.59;60.43;98793.33;102950;1287;600158;-22
2023/09/19 07:15:47;;;;;;;5.50;4.10;;;;;;;18.75;59.50;98787.23;104848;1264;61081;-22
2023/09/19 07:18:16;;;;;;;10.60;4.80;;;;;;;18.90;59.13;98792.80;104898;1263;61064;-21
2023/09/19 07:20:50;;;;;;;7.80;4.00;;;;;;;19.06;58.95;98796.38;104824;1271;72300;-21
2023/09/19 07:23:19;;;;;;;9.80;4.30;;;;;;;19.23;58.04;98792.02;104861;1272;73566;-21
2023/09/19 07:25:48;;;;;;;10.80;3.90;;;;;;;19.33;57.54;98789.73;102523;1266;3233150;-22
2023/09/19 07:28:16;;;;;;;6.60;3.90;;;;;;;19.51;56.98;98789.88;104819;1263;61277;-22
2023/09/19 07:30:44;;;;;;;10.50;3.90;;;;;;;19.74;55.54;98794.59;105080;1267;61119;-21
2023/09/19 07:41:02;;;;;;;3.80;3.10;;;;;;;20.05;55.07;98797.48;102696;1292;599536;-22
2023/09/19 07:43:30;;;;;;;8.60;4.00;;;;;;;20.28;54.35;98792.61;104728;1274;61159;-22
2023/09/19 07:53:40;;;;;;;4.40;3.60;;;;;;;20.93;51.98;98792.24;102664;1295;600041;-22
2023/09/19 07:56:09;;;;;;;10.60;3.30;;;;;;;21.00;51.10;98785.29;104859;1268;61090;-23
2023/09/19 07:58:42;;;;;;;6.00;3.50;;;;;;;20.98;50.84;98782.16;104874;1270;61161;-23
2023/09/19 08:08:55;;;;;;;6.40;3.70;;;;;;;21.52;48.61;98777.39;102678;1292;600093;-22
2023/09/19 08:11:24;;;;;;;7.30;3.60;;;;;;;21.60;48.39;98778.06;105167;1267;61809;-21
2023/09/19 08:13:52;;;;;;;8.40;3.50;;;;;;;21.83;48.11;98777.98;108624;1265;58814;-23
2023/09/19 08:16:22;;;;;;;12.70;3.50;;;;;;;22.02;47.15;98772.74;108697;1266;72902;-23
2023/09/19 08:18:52;;;;;;;4.40;3.00;;;;;;;22.11;46.30;98770.48;108687;1265;74403;-22
2023/09/19 08:21:23;;;;;;;4.80;3.10;;;;;;;22.20;45.95;98772.70;106828;1266;3241440;-23
2023/09/19 08:23:52;;;;;;;5.50;3.60;;;;;;;22.38;46.34;98769.52;108807;1262;60068;-22
2023/09/19 08:26:21;;;;;;;6.10;2.50;;;;;;;22.39;45.92;98774.01;108736;1263;62292;-23
2023/09/19 08:28:50;;;;;;;9.80;3.50;;;;;;;22.43;45.24;98770.45;108801;1263;72204;-23
2023/09/19 08:31:18;;;;;;;4.60;2.70;;;;;;;22.47;44.82;98764.04;108631;1264;74315;-23
2023/09/19 08:33:49;;;;;;;6.80;3.10;;;;;;;22.45;44.76;98758.02;108701;1263;72768;-23
2023/09/19 08:36:16;;;;;;;11.60;3.00;;;;;;;22.54;44.90;98765.48;108734;1263;60091;-23
2023/09/19 08:38:44;;;;;;;3.90;2.70;;;;;;;22.63;43.64;98762.64;108814;1263;60133;-22
2023/09/19 08:41:12;;;;;;;8.30;3.30;;;;;;;22.56;43.46;98758.25;108919;1263;73026;-23
2023/09/19 08:43:40;;;;;;;8.40;2.80;;;;;;;22.63;43.10;98750.02;108807;1263;74756;-23
2023/09/19 08:46:13;;;;;;;4.30;2.60;;;;;;;22.85;43.15;98755.27;108741;1263;73740;-23
2023/09/19 08:48:57;;;;;;;5.50;3.10;;;;;;;22.99;43.22;98753.79;108618;1264;61154;-23
2023/09/19 08:51:46;;;;;;;7.30;3.30;;;;;;;23.18;42.48;98752.05;108662;1263;58838;-23
2023/09/19 08:54:26;;;;;;;3.20;2.30;;;;;;;23.26;41.88;98749.55;108717;1263;75343;-23
2023/09/19 08:56:54;;;;;;;6.50;3.40;;;;;;;23.38;41.27;98749.19;108757;1263;74534;-23
2023/09/19 08:59:24;;;;;;;7.80;3.50;;;;;;;23.51;40.21;98740.67;108754;1264;74096;-23
2023/09/19 09:01:53;;;;;;;4.70;2.50;;;;;;;23.54;40.08;98743.79;109103;1257;61160;-23
2023/09/19 09:04:22;;;;;;;7.00;3.00;;;;;;;23.24;40.47;98739.89;109097;1256;58732;-23
2023/09/19 09:06:53;;;;;;;10.70;3.00;;;;;;;23.43;39.85;98739.35;109153;1256;73153;-23
2023/09/19 09:09:21;;;;;;;15.80;2.70;;;;;;;23.52;40.06;98743.10;109277;1255;76665;-23
2023/09/19 09:11:51;;;;;;;3.90;2.70;;;;;;;23.69;38.84;98737.77;109149;1257;74781;-23
2023/09/19 09:14:21;;;;;;;6.50;3.00;;;;;;;23.95;39.21;98733.15;109230;1256;58813;-23
2023/09/19 09:16:48;;;;;;;3.60;2.70;;;;;;;24.38;38.66;98729.49;109104;1256;61082;-23
2023/09/19 09:19:24;;;;;;;4.80;2.70;;;;;;;24.06;39.07;98732.53;109072;1257;73064;-23
2023/09/19 09:21:52;;;;;;;5.00;3.00;;;;;;;24.24;38.67;98732.83;109136;1257;76505;-23
2023/09/19 09:24:30;;;;;;;4.20;2.90;;;;;;;24.68;38.45;98725.33;109217;1256;74988;-23
2023/09/19 09:26:58;;;;;;;3.40;2.20;;;;;;;24.64;36.31;98716.83;109027;1257;58771;-23
2023/09/19 09:29:54;;;;;;;7.60;2.80;;;;;;;24.15;36.74;98720.77;109117;1257;60056;-23
2023/09/19 09:32:31;;;;;;;10.60;3.50;;;;;;;24.01;37.27;98723.52;109233;1256;75305;-23
2023/09/19 09:35:00;;;;;;;3.70;2.70;;;;;;;24.24;37.36;98722.86;109020;1257;76701;-23
2023/09/19 09:37:30;;;;;;;4.60;2.50;;;;;;;24.08;38.22;98726.77;108933;1257;73761;-23
2023/09/19 09:40:18;;;;;;;4.20;3.10;;;;;;;24.53;38.59;98725.19;109100;1257;60468;-23
2023/09/19 09:42:46;;;;;;;6.40;3.10;;;;;;;25.38;37.85;98722.49;109037;1257;60055;-23
2023/09/19 09:45:16;;;;;;;4.00;2.80;;;;;;;25.68;37.22;98719.84;109109;1257;73060;-23
2023/09/19 09:47:55;;;;;;;3.90;2.20;;;;;;;25.93;35.62;98722.79;109084;1257;74329;-23
2023/09/19 09:50:44;;;;;;;3.70;2.40;;;;;;;25.98;35.53;98716.91;109074;1257;74990;-23
2023/09/19 09:53:33;;;;;;;9.90;2.90;;;;;;;26.47;35.63;98711.77;109060;1257;58884;-23
2023/09/19 09:56:02;;;;;;;3.50;2.70;;;;;;;26.69;34.17;98711.27;109057;1257;60053;-23
2023/09/19 09:58:31;;;;;;;23.50;2.90;;;;;;;27.12;34.20;98710.66;109132;1257;73200;-24
2023/09/19 10:01:01;;;;;;;2.40;2.20;;;;;;;27.39;33.39;98708.23;109156;1257;76371;-23
2023/09/19 10:03:34;;;;;;;6.30;2.70;;;;;;;27.11;32.84;98704.85;109102;1257;72655;-24
2023/09/19 10:06:18;;;;;;;2.90;2.30;;;;;;;27.29;32.07;98704.13;109068;1256;58831;-23
2023/09/19 10:09:17;;;;;;;4.00;2.10;;;;;;;27.46;31.75;98699.75;109048;1259;58736;-24
2023/09/19 10:11:56;;;;;;;9.20;2.80;;;;;;;26.92;32.57;98697.59;108980;1262;74102;-23
2023/09/19 10:14:25;;;;;;;5.50;2.20;;;;;;;26.86;31.71;98695.73;109026;1257;73234;-23
2023/09/19 10:16:53;;;;;;;2.80;2.10;;;;;;;26.05;31.97;98693.39;108882;1257;73762;-23
2023/09/19 10:19:24;;;;;;;2.50;1.80;;;;;;;25.88;32.24;98692.02;109092;1258;60777;-24
2023/09/19 10:21:55;;;;;;;4.90;2.60;;;;;;;25.77;32.47;98689.84;109058;1259;61068;-24
2023/09/19 10:24:24;;;;;;;4.70;2.50;;;;;;;25.65;33.44;98689.02;109022;1257;75289;-23
2023/09/19 10:26:52;;;;;;;5.70;2.50;;;;;;;25.61;33.90;98692.66;108944;1259;74432;-23
2023/09/19 10:29:20;;;;;;;3.50;2.80;;;;;;;26.05;33.50;98685.76;109019;1258;72532;-24
2023/09/19 10:31:48;;;;;;;3.80;2.50;;;;;;;26.60;33.66;98687.99;108972;1260;58819;-24
2023/09/19 10:34:17;;;;;;;3.00;2.00;;;;;;;26.93;32.52;98686.83;108970;1258;59951;-23
2023/09/19 10:36:46;;;;;;;7.00;2.70;;;;;;;26.96;32.75;98685.90;109014;1259;71839;-23
2023/09/19 10:39:18;;;;;;;5.10;2.70;;;;;;;27.55;32.52;98681.85;108988;1258;74294;-23
2023/09/19 10:41:53;;;;;;;4.70;2.30;;;;;;;27.98;31.18;98671.15;109002;1258;75066;-24
2023/09/19 10:44:25;;;;;;;3.50;2.70;;;;;;;27.92;30.35;98676.27;108890;1258;61573;-23
2023/09/19 10:46:53;;;;;;;3.10;2.30;;;;;;;27.93;30.72;98674.19;108971;1259;58769;-23
2023/09/19 10:49:22;;;;;;;3.60;2.20;;;;;;;28.01;29.85;98670.90;109103;1259;74131;-23
2023/09/19 10:51:54;;;;;;;3.20;2.00;;;;;;;26.92;30.54;98669.74;109001;1258;74079;-23
2023/09/19 10:54:26;;;;;;;5.20;2.40;;;;;;;26.49;31.65;98674.86;108967;1258;74928;-23
2023/09/19 10:56:54;;;;;;;6.00;2.50;;;;;;;26.54;31.62;98670.05;108914;1258;62321;-23
2023/09/19 10:59:24;;;;;;;10.90;2.70;;;;;;;26.45;31.15;98660.42;109020;1259;60006;-23
2023/09/19 11:01:52;;;;;;;4.50;1.90;;;;;;;26.35;31.48;98664.73;109085;1259;73077;-23
2023/09/19 11:04:31;;;;;;;7.40;2.70;;;;;;;26.04;31.45;98664.71;109041;1258;75576;-23
2023/09/19 11:07:25;;;;;;;14.60;2.10;;;;;;;25.94;31.69;98663.59;108974;1257;72501;-23
2023/09/19 11:09:54;;;;;;;4.40;2.30;;;;;;;26.12;31.34;98662.95;108964;1259;61202;-23
2023/09/19 11:12:29;;;;;;;3.80;2.20;;;;;;;26.63;31.19;98663.21;108990;1259;60129;-23
2023/09/19 11:14:57;;;;;;;6.70;2.50;;;;;;;26.88;30.09;98659.02;109086;1258;73145;-23
2023/09/19 11:17:36;;;;;;;2.70;2.00;;;;;;;26.82;29.98;98652.71;109088;1259;74385;-23
2023/09/19 11:22:48;;;;;;;3.60;2.20;;;;;;;25.66;31.84;98653.26;109355;1254;58850;-23
2023/09/19 11:25:32;;;;;;;4.80;2.50;;;;;;;25.55;32.04;98649.11;109363;1255;61448;-23
2023/09/19 11:28:13;;;;;;;3.10;2.30;;;;;;;25.50;32.04;98645.67;109146;1255;73014;-23
2023/09/19 11:30:44;;;;;;;2.40;1.80;;;;;;;25.54;32.13;98643.35;109143;1256;75437;-23
2023/09/19 11:33:28;;;;;;;3.60;2.00;;;;;;;25.29;32.29;98642.23;109034;1256;71546;-23
2023/09/19 11:36:06;;;;;;;4.00;1.90;;;;;;;25.19;32.85;98643.36;109008;1255;62278;-24
2023/09/19 11:38:49;;;;;;;5.10;2.30;;;;;;;25.40;32.78;98636.84;109142;1256;58761;-23
2023/09/19 11:41:20;;;;;;;9.20;2.30;;;;;;;25.50;32.55;98637.95;109204;1256;72076;-23
2023/09/19 11:43:50;;;;;;;5.00;1.80;;;;;;;25.13;33.08;98632.77;109166;1257;73034;-23
2023/09/19 11:46:22;;;;;;;2.80;2.00;;;;;;;24.87;32.90;98632.36;109124;1255;74991;-23
2023/09/19 11:48:50;;;;;;;7.10;2.10;;;;;;;24.97;33.44;98636.70;109095;1255;59537;-23
2023/09/19 11:51:19;;;;;;;2.80;2.20;;;;;;;25.28;32.85;98631.35;109063;1257;60984;-23
2023/09/19 11:53:50;;;;;;;2.70;1.90;;;;;;;25.35;32.71;98629.80;109050;1255;73048;-23
2023/09/19 11:56:20;;;;;;;5.60;1.70;;;;;;;25.63;32.84;98630.10;109124;1255;75768;-23
2023/09/19 11:58:55;;;;;;;3.60;1.90;;;;;;;25.71;32.43;98630.02;109121;1255;71427;-23
2023/09/19 12:01:29;;;;;;;8.90;2.50;;;;;;;25.33;32.89;98626.23;109097;1257;60119;-23
2023/09/19 12:03:58;;;;;;;6.00;1.70;;;;;;;25.40;33.19;98628.16;109063;1255;62105;-23
2023/09/19 12:06:29;;;;;;;13.70;2.70;;;;;;;25.47;33.09;98623.25;109101;1256;75273;-24
2023/09/19 12:08:59;;;;;;;6.30;2.30;;;;;;;25.42;33.48;98627.83;109125;1255;74867;-23
2023/09/19 12:11:30;;;;;;;2.10;1.60;;;;;;;25.30;32.94;98627.83;109174;1256;72750;-23
2023/09/19 12:14:00;;;;;;;5.40;1.90;;;;;;;25.15;33.14;98622.48;109133;1255;60078;-23
2023/09/19 12:16:31;;;;;;;7.10;2.20;;;;;;;25.11;33.45;98612.63;109139;1255;59431;-23
2023/09/19 12:18:59;;;;;;;4.60;1.90;;;;;;;25.50;33.08;98614.14;109143;1256;75273;-23
2023/09/19 12:21:31;;;;;;;8.90;2.30;;;;;;;25.72;31.86;98616.34;109061;1255;73767;-23
2023/09/19 12:24:04;;;;;;;6.80;1.90;;;;;;;25.86;30.86;98606.96;109048;1256;72663;-23
2023/09/19 12:26:45;;;;;;;3.80;2.20;;;;;;;25.99;30.56;98601.02;109074;1256;60054;-23
2023/09/19 12:29:20;;;;;;;2.40;1.70;;;;;;;26.13;30.38;98604.61;109080;1256;58776;-23
2023/09/19 12:31:55;;;;;;;7.80;2.10;;;;;;;25.93;30.12;98600.84;108998;1256;74546;-23
2023/09/19 12:34:29;;;;;;;5.10;1.80;;;;;;;25.62;30.63;98598.84;109020;1256;74298;-23
2023/09/19 12:37:21;;;;;;;11.90;2.10;;;;;;;25.50;30.32;98593.90;109044;1256;73814;-23